sensor_id;sensor_type;location;lat;lon;timestamp;temperature;humidity
1812;DHT22;904;47.814;11.134;2022-11-12T00:01:01;5.10;92.00
1812;DHT22;904;47.814;11.134;2022-11-12T00:03:28;5.10;92.10
1812;DHT22;904;47.814;11.134;2022-11-12T00:05:55;5.20;92.30
1812;DHT22;904;47.814;11.134;2022-11-12T00:08:22;5.20;92.40
1812;DHT22;904;47.814;11.134;2022-11-12T00:10:51;5.30;93.10
1812;DHT22;904;47.814;11.134;2022-11-12T00:13:18;5.30;93.40
1812;DHT22;904;47.814;11.134;2022-11-12T00:15:45;5.30;93.80
1812;DHT22;904;47.814;11.134;2022-11-12T00:18:13;5.30;94.10
1812;DHT22;904;47.814;11.134;2022-11-12T00:20:40;5.30;93.80
1812;DHT22;904;47.814;11.134;2022-11-12T00:23:07;5.30;94.00
1812;DHT22;904;47.814;11.134;2022-11-12T00:25:34;5.30;94.30
1812;DHT22;904;47.814;11.134;2022-11-12T00:28:04;5.30;94.20
1812;DHT22;904;47.814;11.134;2022-11-12T00:30:32;5.30;94.00
1812;DHT22;904;47.814;11.134;2022-11-12T00:33:01;5.20;94.00
1812;DHT22;904;47.814;11.134;2022-11-12T00:35:30;5.20;94.10
1812;DHT22;904;47.814;11.134;2022-11-12T00:37:57;5.30;94.20
1812;DHT22;904;47.814;11.134;2022-11-12T00:40:25;5.40;94.10
1812;DHT22;904;47.814;11.134;2022-11-12T00:42:53;5.50;94.40
1812;DHT22;904;47.814;11.134;2022-11-12T00:45:22;5.50;94.40
1812;DHT22;904;47.814;11.134;2022-11-12T00:47:52;5.60;94.40
1812;DHT22;904;47.814;11.134;2022-11-12T00:50:19;5.70;94.10
1812;DHT22;904;47.814;11.134;2022-11-12T00:52:47;5.70;93.60
1812;DHT22;904;47.814;11.134;2022-11-12T00:55:14;5.60;93.00
1812;DHT22;904;47.814;11.134;2022-11-12T00:57:41;5.60;93.20
1812;DHT22;904;47.814;11.134;2022-11-12T01:00:15;5.60;93.40
1812;DHT22;904;47.814;11.134;2022-11-12T01:02:44;5.60;93.40
1812;DHT22;904;47.814;11.134;2022-11-12T01:05:11;5.60;93.20
1812;DHT22;904;47.814;11.134;2022-11-12T01:07:38;5.50;93.10
1812;DHT22;904;47.814;11.134;2022-11-12T01:10:07;5.50;93.10
1812;DHT22;904;47.814;11.134;2022-11-12T01:12:34;5.50;93.30
1812;DHT22;904;47.814;11.134;2022-11-12T01:15:02;5.50;93.50
1812;DHT22;904;47.814;11.134;2022-11-12T01:17:29;5.40;93.50
1812;DHT22;904;47.814;11.134;2022-11-12T01:19:57;5.30;94.10
1812;DHT22;904;47.814;11.134;2022-11-12T01:22:25;5.30;94.40
1812;DHT22;904;47.814;11.134;2022-11-12T01:24:52;5.30;94.40
1812;DHT22;904;47.814;11.134;2022-11-12T01:27:21;5.30;94.40
1812;DHT22;904;47.814;11.134;2022-11-12T01:29:48;5.20;94.50
1812;DHT22;904;47.814;11.134;2022-11-12T01:32:15;5.20;94.60
1812;DHT22;904;47.814;11.134;2022-11-12T01:34:42;5.20;95.10
1812;DHT22;904;47.814;11.134;2022-11-12T01:37:11;5.20;95.20
1812;DHT22;904;47.814;11.134;2022-11-12T01:39:38;5.10;95.60
1812;DHT22;904;47.814;11.134;2022-11-12T01:42:05;5.00;96.10
1812;DHT22;904;47.814;11.134;2022-11-12T01:44:34;4.90;96.40
1812;DHT22;904;47.814;11.134;2022-11-12T01:47:04;4.80;96.70
1812;DHT22;904;47.814;11.134;2022-11-12T01:49:38;4.80;97.20
1812;DHT22;904;47.814;11.134;2022-11-12T01:52:15;4.80;97.60
1812;DHT22;904;47.814;11.134;2022-11-12T01:54:44;4.90;97.90
1812;DHT22;904;47.814;11.134;2022-11-12T01:57:17;4.90;98.10
1812;DHT22;904;47.814;11.134;2022-11-12T01:59:47;5.00;98.30
1812;DHT22;904;47.814;11.134;2022-11-12T02:02:15;5.00;98.40
1812;DHT22;904;47.814;11.134;2022-11-12T02:04:42;5.00;98.90
1812;DHT22;904;47.814;11.134;2022-11-12T02:07:12;5.10;98.90
1812;DHT22;904;47.814;11.134;2022-11-12T02:09:39;5.10;98.50
1812;DHT22;904;47.814;11.134;2022-11-12T02:12:07;5.00;98.50
1812;DHT22;904;47.814;11.134;2022-11-12T02:14:54;5.10;98.50
1812;DHT22;904;47.814;11.134;2022-11-12T02:17:20;5.10;98.40
1812;DHT22;904;47.814;11.134;2022-11-12T02:19:50;5.10;98.50
1812;DHT22;904;47.814;11.134;2022-11-12T02:22:18;5.20;98.60
1812;DHT22;904;47.814;11.134;2022-11-12T02:24:45;5.20;98.40
1812;DHT22;904;47.814;11.134;2022-11-12T02:27:13;5.10;98.30
1812;DHT22;904;47.814;11.134;2022-11-12T02:29:40;5.10;98.50
1812;DHT22;904;47.814;11.134;2022-11-12T02:32:11;5.10;98.90
1812;DHT22;904;47.814;11.134;2022-11-12T02:34:38;5.10;99.50
1812;DHT22;904;47.814;11.134;2022-11-12T02:37:06;5.10;99.30
1812;DHT22;904;47.814;11.134;2022-11-12T02:39:35;5.10;99.00
1812;DHT22;904;47.814;11.134;2022-11-12T02:42:03;5.10;99.00
1812;DHT22;904;47.814;11.134;2022-11-12T02:44:30;5.00;98.90
1812;DHT22;904;47.814;11.134;2022-11-12T02:46:57;5.00;99.50
1812;DHT22;904;47.814;11.134;2022-11-12T02:49:24;4.90;99.50
1812;DHT22;904;47.814;11.134;2022-11-12T02:51:51;5.00;99.80
1812;DHT22;904;47.814;11.134;2022-11-12T02:54:19;5.00;99.70
1812;DHT22;904;47.814;11.134;2022-11-12T02:56:47;5.00;99.40
1812;DHT22;904;47.814;11.134;2022-11-12T02:59:14;5.00;99.30
1812;DHT22;904;47.814;11.134;2022-11-12T03:01:42;5.00;99.30
1812;DHT22;904;47.814;11.134;2022-11-12T03:04:09;5.00;99.00
1812;DHT22;904;47.814;11.134;2022-11-12T03:06:36;5.00;98.90
1812;DHT22;904;47.814;11.134;2022-11-12T03:09:04;5.00;98.40
1812;DHT22;904;47.814;11.134;2022-11-12T03:11:33;5.00;98.50
1812;DHT22;904;47.814;11.134;2022-11-12T03:14:02;5.10;98.60
1812;DHT22;904;47.814;11.134;2022-11-12T03:16:29;5.10;98.80
1812;DHT22;904;47.814;11.134;2022-11-12T03:18:56;5.20;98.50
1812;DHT22;904;47.814;11.134;2022-11-12T03:21:23;5.10;97.80
1812;DHT22;904;47.814;11.134;2022-11-12T03:23:50;5.10;97.70
1812;DHT22;904;47.814;11.134;2022-11-12T03:26:18;5.00;98.50
1812;DHT22;904;47.814;11.134;2022-11-12T03:28:45;5.00;98.70
1812;DHT22;904;47.814;11.134;2022-11-12T03:31:14;5.00;98.70
1812;DHT22;904;47.814;11.134;2022-11-12T03:33:41;5.00;98.80
1812;DHT22;904;47.814;11.134;2022-11-12T03:36:09;5.10;98.60
1812;DHT22;904;47.814;11.134;2022-11-12T03:38:36;5.10;98.40
1812;DHT22;904;47.814;11.134;2022-11-12T03:41:04;5.10;98.30
1812;DHT22;904;47.814;11.134;2022-11-12T03:43:31;5.10;98.20
1812;DHT22;904;47.814;11.134;2022-11-12T03:45:58;5.10;98.30
1812;DHT22;904;47.814;11.134;2022-11-12T03:48:28;5.00;98.10
1812;DHT22;904;47.814;11.134;2022-11-12T03:50:56;5.10;98.10
1812;DHT22;904;47.814;11.134;2022-11-12T03:53:24;5.10;97.90
1812;DHT22;904;47.814;11.134;2022-11-12T03:55:51;5.10;97.80
1812;DHT22;904;47.814;11.134;2022-11-12T03:58:19;5.10;97.90
1812;DHT22;904;47.814;11.134;2022-11-12T04:00:46;5.00;97.90
1812;DHT22;904;47.814;11.134;2022-11-12T04:03:13;5.00;98.10
1812;DHT22;904;47.814;11.134;2022-11-12T04:05:41;5.10;98.00
1812;DHT22;904;47.814;11.134;2022-11-12T04:08:26;5.10;97.80
1812;DHT22;904;47.814;11.134;2022-11-12T04:11:03;5.10;97.80
1812;DHT22;904;47.814;11.134;2022-11-12T04:13:31;5.10;97.50
1812;DHT22;904;47.814;11.134;2022-11-12T04:15:59;5.20;97.40
1812;DHT22;904;47.814;11.134;2022-11-12T04:18:46;5.20;97.40
1812;DHT22;904;47.814;11.134;2022-11-12T04:21:35;5.20;97.30
1812;DHT22;904;47.814;11.134;2022-11-12T04:24:24;5.20;97.30
1812;DHT22;904;47.814;11.134;2022-11-12T04:27:11;5.20;97.40
1812;DHT22;904;47.814;11.134;2022-11-12T04:29:39;5.20;97.30
1812;DHT22;904;47.814;11.134;2022-11-12T04:32:24;5.20;97.00
1812;DHT22;904;47.814;11.134;2022-11-12T04:34:51;5.10;96.80
1812;DHT22;904;47.814;11.134;2022-11-12T04:37:21;5.10;96.80
1812;DHT22;904;47.814;11.134;2022-11-12T04:39:48;5.00;96.30
1812;DHT22;904;47.814;11.134;2022-11-12T04:42:15;5.00;96.70
1812;DHT22;904;47.814;11.134;2022-11-12T04:45:14;5.00;97.00
1812;DHT22;904;47.814;11.134;2022-11-12T04:47:42;5.00;96.40
1812;DHT22;904;47.814;11.134;2022-11-12T04:50:14;5.00;96.40
1812;DHT22;904;47.814;11.134;2022-11-12T04:52:43;5.00;96.40
1812;DHT22;904;47.814;11.134;2022-11-12T04:55:10;5.00;96.30
1812;DHT22;904;47.814;11.134;2022-11-12T04:57:38;5.00;96.20
1812;DHT22;904;47.814;11.134;2022-11-12T05:00:06;4.90;96.10
1812;DHT22;904;47.814;11.134;2022-11-12T05:02:34;4.90;96.20
1812;DHT22;904;47.814;11.134;2022-11-12T05:05:01;5.00;96.20
1812;DHT22;904;47.814;11.134;2022-11-12T05:07:28;5.00;96.30
1812;DHT22;904;47.814;11.134;2022-11-12T05:09:59;5.00;96.30
1812;DHT22;904;47.814;11.134;2022-11-12T05:12:26;5.00;96.20
1812;DHT22;904;47.814;11.134;2022-11-12T05:14:53;5.00;96.10
1812;DHT22;904;47.814;11.134;2022-11-12T05:17:20;5.00;96.20
1812;DHT22;904;47.814;11.134;2022-11-12T05:19:47;5.00;96.00
1812;DHT22;904;47.814;11.134;2022-11-12T05:22:15;5.00;95.90
1812;DHT22;904;47.814;11.134;2022-11-12T05:24:43;5.00;96.20
1812;DHT22;904;47.814;11.134;2022-11-12T05:27:14;5.00;96.20
1812;DHT22;904;47.814;11.134;2022-11-12T05:29:41;4.90;96.30
1812;DHT22;904;47.814;11.134;2022-11-12T05:32:11;4.90;96.70
1812;DHT22;904;47.814;11.134;2022-11-12T05:34:38;4.80;96.60
1812;DHT22;904;47.814;11.134;2022-11-12T05:37:07;4.80;96.90
1812;DHT22;904;47.814;11.134;2022-11-12T05:39:34;4.70;97.20
1812;DHT22;904;47.814;11.134;2022-11-12T05:42:01;4.70;97.30
1812;DHT22;904;47.814;11.134;2022-11-12T05:44:30;4.60;97.40
1812;DHT22;904;47.814;11.134;2022-11-12T05:46:57;4.60;97.10
1812;DHT22;904;47.814;11.134;2022-11-12T05:49:24;4.50;97.00
1812;DHT22;904;47.814;11.134;2022-11-12T05:51:51;4.50;96.90
1812;DHT22;904;47.814;11.134;2022-11-12T05:54:18;4.60;96.70
1812;DHT22;904;47.814;11.134;2022-11-12T05:56:46;4.60;97.10
1812;DHT22;904;47.814;11.134;2022-11-12T05:59:13;4.60;96.40
1812;DHT22;904;47.814;11.134;2022-11-12T06:01:42;4.60;96.30
1812;DHT22;904;47.814;11.134;2022-11-12T06:04:10;4.60;96.20
1812;DHT22;904;47.814;11.134;2022-11-12T06:06:38;4.70;96.20
1812;DHT22;904;47.814;11.134;2022-11-12T06:09:06;4.70;96.00
1812;DHT22;904;47.814;11.134;2022-11-12T06:11:33;4.60;95.80
1812;DHT22;904;47.814;11.134;2022-11-12T06:14:01;4.60;95.70
1812;DHT22;904;47.814;11.134;2022-11-12T06:16:29;4.60;95.70
1812;DHT22;904;47.814;11.134;2022-11-12T06:18:58;4.60;95.80
1812;DHT22;904;47.814;11.134;2022-11-12T06:21:25;4.60;96.00
1812;DHT22;904;47.814;11.134;2022-11-12T06:23:55;4.60;95.90
1812;DHT22;904;47.814;11.134;2022-11-12T06:26:24;4.60;96.20
1812;DHT22;904;47.814;11.134;2022-11-12T06:28:51;4.70;96.30
1812;DHT22;904;47.814;11.134;2022-11-12T06:31:19;4.70;96.10
1812;DHT22;904;47.814;11.134;2022-11-12T06:33:47;4.70;96.10
1812;DHT22;904;47.814;11.134;2022-11-12T06:36:17;4.60;95.90
1812;DHT22;904;47.814;11.134;2022-11-12T06:38:44;4.60;96.10
1812;DHT22;904;47.814;11.134;2022-11-12T06:41:12;4.60;96.00
1812;DHT22;904;47.814;11.134;2022-11-12T06:43:40;4.60;96.00
1812;DHT22;904;47.814;11.134;2022-11-12T06:46:11;4.50;96.20
1812;DHT22;904;47.814;11.134;2022-11-12T06:48:38;4.50;96.60
1812;DHT22;904;47.814;11.134;2022-11-12T06:51:08;4.50;96.60
1812;DHT22;904;47.814;11.134;2022-11-12T06:53:37;4.60;96.70
1812;DHT22;904;47.814;11.134;2022-11-12T06:56:06;4.60;96.70
1812;DHT22;904;47.814;11.134;2022-11-12T06:58:33;4.70;96.70
1812;DHT22;904;47.814;11.134;2022-11-12T07:01:05;4.80;96.50
1812;DHT22;904;47.814;11.134;2022-11-12T07:03:32;4.80;96.50
1812;DHT22;904;47.814;11.134;2022-11-12T07:06:03;4.80;96.40
1812;DHT22;904;47.814;11.134;2022-11-12T07:08:31;4.90;96.10
1812;DHT22;904;47.814;11.134;2022-11-12T07:10:59;4.80;96.10
1812;DHT22;904;47.814;11.134;2022-11-12T07:13:29;4.80;96.00
1812;DHT22;904;47.814;11.134;2022-11-12T07:15:56;4.80;95.90
1812;DHT22;904;47.814;11.134;2022-11-12T07:18:24;4.70;95.90
1812;DHT22;904;47.814;11.134;2022-11-12T07:20:55;4.80;96.30
1812;DHT22;904;47.814;11.134;2022-11-12T07:23:23;4.80;96.50
1812;DHT22;904;47.814;11.134;2022-11-12T07:25:55;4.90;96.70
1812;DHT22;904;47.814;11.134;2022-11-12T07:28:24;5.10;96.80
1812;DHT22;904;47.814;11.134;2022-11-12T07:30:56;5.10;96.50
1812;DHT22;904;47.814;11.134;2022-11-12T07:33:24;5.20;96.70
1812;DHT22;904;47.814;11.134;2022-11-12T07:35:58;5.30;96.60
1812;DHT22;904;47.814;11.134;2022-11-12T07:38:26;5.40;95.60
1812;DHT22;904;47.814;11.134;2022-11-12T07:40:58;5.50;95.40
1812;DHT22;904;47.814;11.134;2022-11-12T07:43:27;5.60;95.20
1812;DHT22;904;47.814;11.134;2022-11-12T07:45:57;5.70;94.30
1812;DHT22;904;47.814;11.134;2022-11-12T07:48:24;5.90;93.90
1812;DHT22;904;47.814;11.134;2022-11-12T07:50:51;6.00;94.00
1812;DHT22;904;47.814;11.134;2022-11-12T07:53:18;6.00;93.80
1812;DHT22;904;47.814;11.134;2022-11-12T07:55:52;6.10;93.40
1812;DHT22;904;47.814;11.134;2022-11-12T07:58:19;6.30;93.50
1812;DHT22;904;47.814;11.134;2022-11-12T08:00:48;6.50;93.40
1812;DHT22;904;47.814;11.134;2022-11-12T08:03:15;6.70;92.60
1812;DHT22;904;47.814;11.134;2022-11-12T08:05:42;6.90;92.50
1812;DHT22;904;47.814;11.134;2022-11-12T08:08:09;7.30;92.20
1812;DHT22;904;47.814;11.134;2022-11-12T08:10:37;7.60;91.70
1812;DHT22;904;47.814;11.134;2022-11-12T08:13:04;7.90;90.90
1812;DHT22;904;47.814;11.134;2022-11-12T08:15:31;8.30;90.30
1812;DHT22;904;47.814;11.134;2022-11-12T08:18:00;8.40;87.20
1812;DHT22;904;47.814;11.134;2022-11-12T08:20:27;8.60;86.30
1812;DHT22;904;47.814;11.134;2022-11-12T08:22:58;8.80;86.60
1812;DHT22;904;47.814;11.134;2022-11-12T08:25:25;9.10;84.60
1812;DHT22;904;47.814;11.134;2022-11-12T08:27:55;9.50;84.70
1812;DHT22;904;47.814;11.134;2022-11-12T08:30:23;10.10;82.80
1812;DHT22;904;47.814;11.134;2022-11-12T08:32:55;10.80;81.30
1812;DHT22;904;47.814;11.134;2022-11-12T08:35:24;11.50;78.00
1812;DHT22;904;47.814;11.134;2022-11-12T08:37:51;11.90;72.70
1812;DHT22;904;47.814;11.134;2022-11-12T08:40:22;12.50;72.40
1812;DHT22;904;47.814;11.134;2022-11-12T08:42:56;13.30;69.80
1812;DHT22;904;47.814;11.134;2022-11-12T08:45:23;14.10;66.60
1812;DHT22;904;47.814;11.134;2022-11-12T08:47:50;14.70;62.80
1812;DHT22;904;47.814;11.134;2022-11-12T08:50:23;14.90;59.80
1812;DHT22;904;47.814;11.134;2022-11-12T08:52:50;15.00;56.60
1812;DHT22;904;47.814;11.134;2022-11-12T08:55:17;15.00;57.90
1812;DHT22;904;47.814;11.134;2022-11-12T08:57:44;15.10;56.00
1812;DHT22;904;47.814;11.134;2022-11-12T09:00:12;15.30;56.50
1812;DHT22;904;47.814;11.134;2022-11-12T09:02:39;15.40;54.40
1812;DHT22;904;47.814;11.134;2022-11-12T09:05:07;15.30;55.00
1812;DHT22;904;47.814;11.134;2022-11-12T09:07:35;15.30;54.80
1812;DHT22;904;47.814;11.134;2022-11-12T09:10:03;15.10;55.00
1812;DHT22;904;47.814;11.134;2022-11-12T09:12:30;14.80;54.50
1812;DHT22;904;47.814;11.134;2022-11-12T09:14:57;14.40;56.00
1812;DHT22;904;47.814;11.134;2022-11-12T09:17:24;14.30;57.00
1812;DHT22;904;47.814;11.134;2022-11-12T09:19:51;14.30;56.70
1812;DHT22;904;47.814;11.134;2022-11-12T09:22:18;14.30;56.70
1812;DHT22;904;47.814;11.134;2022-11-12T09:24:46;14.10;57.60
1812;DHT22;904;47.814;11.134;2022-11-12T09:27:13;14.00;57.60
1812;DHT22;904;47.814;11.134;2022-11-12T09:29:40;14.10;58.10
1812;DHT22;904;47.814;11.134;2022-11-12T09:32:06;14.10;58.80
1812;DHT22;904;47.814;11.134;2022-11-12T09:34:34;14.20;59.10
1812;DHT22;904;47.814;11.134;2022-11-12T09:37:01;14.40;58.70
1812;DHT22;904;47.814;11.134;2022-11-12T09:39:28;14.70;59.60
1812;DHT22;904;47.814;11.134;2022-11-12T09:41:57;15.00;59.20
1812;DHT22;904;47.814;11.134;2022-11-12T09:44:24;15.20;58.60
1812;DHT22;904;47.814;11.134;2022-11-12T09:46:54;15.30;57.10
1812;DHT22;904;47.814;11.134;2022-11-12T09:49:26;15.20;56.70
1812;DHT22;904;47.814;11.134;2022-11-12T09:51:57;15.20;56.60
1812;DHT22;904;47.814;11.134;2022-11-12T09:54:27;15.10;57.40
1812;DHT22;904;47.814;11.134;2022-11-12T09:56:54;15.20;58.20
1812;DHT22;904;47.814;11.134;2022-11-12T09:59:26;15.20;58.10
1812;DHT22;904;47.814;11.134;2022-11-12T10:01:58;15.30;58.10
1812;DHT22;904;47.814;11.134;2022-11-12T10:04:52;15.50;57.30
1812;DHT22;904;47.814;11.134;2022-11-12T10:07:32;15.80;57.80
1812;DHT22;904;47.814;11.134;2022-11-12T10:10:04;16.20;57.30
1812;DHT22;904;47.814;11.134;2022-11-12T10:12:44;16.70;56.50
1812;DHT22;904;47.814;11.134;2022-11-12T10:15:40;17.10;56.10
1812;DHT22;904;47.814;11.134;2022-11-12T10:18:49;17.30;53.90
1812;DHT22;904;47.814;11.134;2022-11-12T10:21:28;17.30;53.00
1812;DHT22;904;47.814;11.134;2022-11-12T10:23:59;17.10;52.90
1812;DHT22;904;47.814;11.134;2022-11-12T10:26:27;16.90;54.00
1812;DHT22;904;47.814;11.134;2022-11-12T10:29:00;16.70;53.60
1812;DHT22;904;47.814;11.134;2022-11-12T10:31:30;16.60;54.20
1812;DHT22;904;47.814;11.134;2022-11-12T10:34:13;16.40;54.50
1812;DHT22;904;47.814;11.134;2022-11-12T10:36:43;16.30;55.50
1812;DHT22;904;47.814;11.134;2022-11-12T10:39:30;16.10;55.90
1812;DHT22;904;47.814;11.134;2022-11-12T10:42:03;16.10;56.40
1812;DHT22;904;47.814;11.134;2022-11-12T10:44:31;16.20;56.60
1812;DHT22;904;47.814;11.134;2022-11-12T10:47:25;16.30;57.00
1812;DHT22;904;47.814;11.134;2022-11-12T10:50:18;16.30;57.30
1812;DHT22;904;47.814;11.134;2022-11-12T10:52:53;16.20;57.30
1812;DHT22;904;47.814;11.134;2022-11-12T10:55:22;16.10;57.50
1812;DHT22;904;47.814;11.134;2022-11-12T10:58:20;16.00;57.20
1812;DHT22;904;47.814;11.134;2022-11-12T11:00:56;16.00;57.80
1812;DHT22;904;47.814;11.134;2022-11-12T11:03:27;16.00;58.00
1812;DHT22;904;47.814;11.134;2022-11-12T11:05:59;16.10;58.10
1812;DHT22;904;47.814;11.134;2022-11-12T11:08:35;16.20;57.30
1812;DHT22;904;47.814;11.134;2022-11-12T11:11:23;16.20;57.30
1812;DHT22;904;47.814;11.134;2022-11-12T11:13:52;16.20;57.30
1812;DHT22;904;47.814;11.134;2022-11-12T11:16:21;16.20;56.80
1812;DHT22;904;47.814;11.134;2022-11-12T11:18:53;16.00;57.30
1812;DHT22;904;47.814;11.134;2022-11-12T11:21:55;15.90;57.20
1812;DHT22;904;47.814;11.134;2022-11-12T11:24:38;15.90;58.50
1812;DHT22;904;47.814;11.134;2022-11-12T11:27:17;15.90;58.00
1812;DHT22;904;47.814;11.134;2022-11-12T11:30:00;15.70;58.70
1812;DHT22;904;47.814;11.134;2022-11-12T11:32:42;15.60;58.90
1812;DHT22;904;47.814;11.134;2022-11-12T11:35:20;15.50;60.10
1812;DHT22;904;47.814;11.134;2022-11-12T11:37:58;15.50;60.10
1812;DHT22;904;47.814;11.134;2022-11-12T11:40:33;15.50;60.10
1812;DHT22;904;47.814;11.134;2022-11-12T11:43:15;15.70;60.80
1812;DHT22;904;47.814;11.134;2022-11-12T11:45:55;15.70;60.00
1812;DHT22;904;47.814;11.134;2022-11-12T11:48:33;15.60;60.50
1812;DHT22;904;47.814;11.134;2022-11-12T11:51:15;15.50;61.00
1812;DHT22;904;47.814;11.134;2022-11-12T11:53:52;15.30;60.50
1812;DHT22;904;47.814;11.134;2022-11-12T11:56:24;15.30;61.80
1812;DHT22;904;47.814;11.134;2022-11-12T11:59:04;15.30;63.30
1812;DHT22;904;47.814;11.134;2022-11-12T12:01:47;15.30;62.60
1812;DHT22;904;47.814;11.134;2022-11-12T12:04:31;15.30;62.60
1812;DHT22;904;47.814;11.134;2022-11-12T12:07:10;15.50;62.60
1812;DHT22;904;47.814;11.134;2022-11-12T12:09:47;15.60;63.20
1812;DHT22;904;47.814;11.134;2022-11-12T12:12:26;15.80;62.20
1812;DHT22;904;47.814;11.134;2022-11-12T12:15:05;16.00;61.50
1812;DHT22;904;47.814;11.134;2022-11-12T12:17:42;16.20;61.10
1812;DHT22;904;47.814;11.134;2022-11-12T12:20:17;16.40;60.10
1812;DHT22;904;47.814;11.134;2022-11-12T12:22:50;16.60;59.60
1812;DHT22;904;47.814;11.134;2022-11-12T12:25:22;16.60;59.10
1812;DHT22;904;47.814;11.134;2022-11-12T12:27:58;16.60;59.10
1812;DHT22;904;47.814;11.134;2022-11-12T12:30:28;16.50;58.50
1812;DHT22;904;47.814;11.134;2022-11-12T12:33:14;16.50;58.80
1812;DHT22;904;47.814;11.134;2022-11-12T12:35:50;16.40;59.00
1812;DHT22;904;47.814;11.134;2022-11-12T12:38:26;16.30;59.50
1812;DHT22;904;47.814;11.134;2022-11-12T12:41:00;16.30;59.50
1812;DHT22;904;47.814;11.134;2022-11-12T12:43:34;16.20;59.60
1812;DHT22;904;47.814;11.134;2022-11-12T12:46:05;16.20;60.00
1812;DHT22;904;47.814;11.134;2022-11-12T12:48:38;16.20;60.40
1812;DHT22;904;47.814;11.134;2022-11-12T12:51:07;16.20;61.30
1812;DHT22;904;47.814;11.134;2022-11-12T12:53:36;16.10;60.80
1812;DHT22;904;47.814;11.134;2022-11-12T12:56:06;16.00;61.30
1812;DHT22;904;47.814;11.134;2022-11-12T12:58:57;15.90;62.50
1812;DHT22;904;47.814;11.134;2022-11-12T13:01:31;15.80;62.80
1812;DHT22;904;47.814;11.134;2022-11-12T13:04:00;15.70;63.70
1812;DHT22;904;47.814;11.134;2022-11-12T13:06:31;15.70;64.00
1812;DHT22;904;47.814;11.134;2022-11-12T13:09:02;15.80;63.90
1812;DHT22;904;47.814;11.134;2022-11-12T13:11:52;15.80;63.70
1812;DHT22;904;47.814;11.134;2022-11-12T13:14:49;15.70;63.60
1812;DHT22;904;47.814;11.134;2022-11-12T13:17:45;15.60;63.40
1812;DHT22;904;47.814;11.134;2022-11-12T13:20:32;15.40;63.50
1812;DHT22;904;47.814;11.134;2022-11-12T13:23:00;15.10;64.10
1812;DHT22;904;47.814;11.134;2022-11-12T13:25:30;15.00;64.50
1812;DHT22;904;47.814;11.134;2022-11-12T13:28:09;14.80;64.90
1812;DHT22;904;47.814;11.134;2022-11-12T13:30:59;14.70;65.70
1812;DHT22;904;47.814;11.134;2022-11-12T13:33:32;14.50;66.50
1812;DHT22;904;47.814;11.134;2022-11-12T13:36:23;14.40;67.10
1812;DHT22;904;47.814;11.134;2022-11-12T13:38:51;14.20;67.80
1812;DHT22;904;47.814;11.134;2022-11-12T13:41:21;14.10;68.10
1812;DHT22;904;47.814;11.134;2022-11-12T13:44:05;13.90;68.50
1812;DHT22;904;47.814;11.134;2022-11-12T13:46:33;13.70;69.50
1812;DHT22;904;47.814;11.134;2022-11-12T13:49:02;13.60;70.00
1812;DHT22;904;47.814;11.134;2022-11-12T13:51:39;13.60;70.10
1812;DHT22;904;47.814;11.134;2022-11-12T13:54:31;13.50;70.50
1812;DHT22;904;47.814;11.134;2022-11-12T13:57:25;13.50;71.10
1812;DHT22;904;47.814;11.134;2022-11-12T14:00:21;13.40;71.60
1812;DHT22;904;47.814;11.134;2022-11-12T14:02:51;13.30;71.80
1812;DHT22;904;47.814;11.134;2022-11-12T14:05:21;13.30;72.20
1812;DHT22;904;47.814;11.134;2022-11-12T14:07:59;13.20;72.80
1812;DHT22;904;47.814;11.134;2022-11-12T14:10:36;13.10;73.30
1812;DHT22;904;47.814;11.134;2022-11-12T14:13:26;13.10;73.40
1812;DHT22;904;47.814;11.134;2022-11-12T14:16:19;13.00;73.50
1812;DHT22;904;47.814;11.134;2022-11-12T14:19:12;12.90;73.80
1812;DHT22;904;47.814;11.134;2022-11-12T14:21:57;12.80;74.30
1812;DHT22;904;47.814;11.134;2022-11-12T14:24:24;12.80;74.90
1812;DHT22;904;47.814;11.134;2022-11-12T14:26:52;12.70;75.50
1812;DHT22;904;47.814;11.134;2022-11-12T14:29:20;12.60;75.80
1812;DHT22;904;47.814;11.134;2022-11-12T14:31:59;12.50;76.50
1812;DHT22;904;47.814;11.134;2022-11-12T14:34:28;12.50;77.10
1812;DHT22;904;47.814;11.134;2022-11-12T14:36:56;12.40;77.30
1812;DHT22;904;47.814;11.134;2022-11-12T14:39:24;12.30;77.90
1812;DHT22;904;47.814;11.134;2022-11-12T14:41:54;12.20;78.00
1812;DHT22;904;47.814;11.134;2022-11-12T14:44:27;12.10;78.50
1812;DHT22;904;47.814;11.134;2022-11-12T14:46:58;12.00;79.20
1812;DHT22;904;47.814;11.134;2022-11-12T14:49:31;12.00;79.70
1812;DHT22;904;47.814;11.134;2022-11-12T14:52:08;11.90;79.80
1812;DHT22;904;47.814;11.134;2022-11-12T14:54:43;11.80;79.90
1812;DHT22;904;47.814;11.134;2022-11-12T14:57:16;11.70;80.00
1812;DHT22;904;47.814;11.134;2022-11-12T14:59:48;11.60;80.30
1812;DHT22;904;47.814;11.134;2022-11-12T15:02:18;11.50;80.80
1812;DHT22;904;47.814;11.134;2022-11-12T15:04:51;11.40;80.90
1812;DHT22;904;47.814;11.134;2022-11-12T15:07:25;11.40;81.20
1812;DHT22;904;47.814;11.134;2022-11-12T15:09:53;11.30;81.70
1812;DHT22;904;47.814;11.134;2022-11-12T15:12:24;11.20;82.30
1812;DHT22;904;47.814;11.134;2022-11-12T15:15:05;11.00;83.60
1812;DHT22;904;47.814;11.134;2022-11-12T15:17:35;11.00;83.40
1812;DHT22;904;47.814;11.134;2022-11-12T15:20:04;10.90;83.90
1812;DHT22;904;47.814;11.134;2022-11-12T15:22:33;10.80;84.30
1812;DHT22;904;47.814;11.134;2022-11-12T15:25:17;10.70;84.80
1812;DHT22;904;47.814;11.134;2022-11-12T15:27:45;10.50;86.60
1812;DHT22;904;47.814;11.134;2022-11-12T15:30:22;10.40;87.10
1812;DHT22;904;47.814;11.134;2022-11-12T15:33:06;10.40;87.30
1812;DHT22;904;47.814;11.134;2022-11-12T15:35:38;10.30;87.50
1812;DHT22;904;47.814;11.134;2022-11-12T15:38:14;10.20;88.50
1812;DHT22;904;47.814;11.134;2022-11-12T15:40:45;10.20;89.50
1812;DHT22;904;47.814;11.134;2022-11-12T15:43:15;10.20;90.00
1812;DHT22;904;47.814;11.134;2022-11-12T15:45:47;10.20;90.20
1812;DHT22;904;47.814;11.134;2022-11-12T15:48:14;10.10;90.60
1812;DHT22;904;47.814;11.134;2022-11-12T15:50:41;10.10;90.90
1812;DHT22;904;47.814;11.134;2022-11-12T15:53:08;10.00;91.20
1812;DHT22;904;47.814;11.134;2022-11-12T15:55:36;10.00;91.50
1812;DHT22;904;47.814;11.134;2022-11-12T15:58:05;10.00;91.90
1812;DHT22;904;47.814;11.134;2022-11-12T16:00:35;10.00;92.40
1812;DHT22;904;47.814;11.134;2022-11-12T16:03:15;10.00;92.80
1812;DHT22;904;47.814;11.134;2022-11-12T16:05:43;10.00;93.20
1812;DHT22;904;47.814;11.134;2022-11-12T16:08:10;10.10;93.30
1812;DHT22;904;47.814;11.134;2022-11-12T16:10:39;10.10;93.50
1812;DHT22;904;47.814;11.134;2022-11-12T16:13:10;10.10;93.60
1812;DHT22;904;47.814;11.134;2022-11-12T16:15:38;10.10;93.70
1812;DHT22;904;47.814;11.134;2022-11-12T16:18:09;10.10;93.90
1812;DHT22;904;47.814;11.134;2022-11-12T16:20:37;10.10;94.10
1812;DHT22;904;47.814;11.134;2022-11-12T16:23:04;10.10;94.40
1812;DHT22;904;47.814;11.134;2022-11-12T16:25:35;10.10;94.50
1812;DHT22;904;47.814;11.134;2022-11-12T16:28:03;10.10;94.50
1812;DHT22;904;47.814;11.134;2022-11-12T16:30:35;10.10;94.90
1812;DHT22;904;47.814;11.134;2022-11-12T16:33:02;10.00;95.40
1812;DHT22;904;47.814;11.134;2022-11-12T16:35:33;9.90;96.50
1812;DHT22;904;47.814;11.134;2022-11-12T16:38:00;9.90;96.90